Time;durP1;ratioP1;P1;durP2;ratioP2;P2;SDS_P1;SDS_P2;PMS_P1;PMS_P2;Temp;Humidity;BMP_temperature;BMP_pressure;BME280_temperature;BME280_humidity;BME280_pressure;Samples;Min_cycle;Max_cycle;Signal;HPM_P1;HPM_P2
2022/09/28 00:02:08;;;;;;;0.80;0.80;;;;;;;;;;5052262;28;20300;-85
2022/09/28 00:04:35;;;;;;;0.43;0.43;;;;;;;;;;5051571;28;20215;-83
2022/09/28 00:07:03;;;;;;;1.23;1.07;;;;;;;;;;5051745;28;20204;-83
2022/09/28 00:09:29;;;;;;;0.53;0.53;;;;;;;;;;5051686;28;20209;-83
2022/09/28 00:11:57;;;;;;;0.70;0.70;;;;;;;;;;5052230;28;20265;-84
2022/09/28 00:14:25;;;;;;;0.70;0.70;;;;;;;;;;5051414;28;20206;-83
2022/09/28 00:16:52;;;;;;;0.50;0.50;;;;;;;;;;5050934;28;20210;-83
2022/09/28 00:19:18;;;;;;;0.60;0.60;;;;;;;;;;5051462;28;20761;-83
2022/09/28 00:21:45;;;;;;;0.80;0.80;;;;;;;;;;5051585;28;20622;-83
2022/09/28 00:24:17;;;;;;;2.13;0.73;;;;;;;;;;5051333;28;20703;-84
2022/09/28 00:26:46;;;;;;;0.70;0.70;;;;;;;;;;5051695;28;20201;-84
2022/09/28 00:29:17;;;;;;;1.43;1.30;;;;;;;;;;5051467;28;20209;-84
2022/09/28 00:31:43;;;;;;;0.53;0.53;;;;;;;;;;5051175;28;20230;-84
2022/09/28 00:34:10;;;;;;;0.50;0.50;;;;;;;;;;5050893;28;20208;-83
2022/09/28 00:36:37;;;;;;;2.83;0.90;;;;;;;;;;5051276;28;20237;-84
2022/09/28 00:39:05;;;;;;;0.63;0.63;;;;;;;;;;5051609;28;20203;-83
2022/09/28 00:41:34;;;;;;;0.50;0.50;;;;;;;;;;5050907;28;20211;-83
2022/09/28 00:44:35;;;;;;;0.60;0.60;;;;;;;;;;5050724;28;20198;-82
2022/09/28 00:47:07;;;;;;;0.47;0.47;;;;;;;;;;5050733;28;20323;-82
2022/09/28 00:49:37;;;;;;;0.60;0.60;;;;;;;;;;5051120;28;20206;-82
2022/09/28 00:52:06;;;;;;;0.57;0.57;;;;;;;;;;5051217;28;20690;-83
2022/09/28 00:54:33;;;;;;;0.50;0.50;;;;;;;;;;5036743;28;20681;-83
2022/09/28 00:57:02;;;;;;;0.97;0.97;;;;;;;;;;5051101;28;20207;-82
2022/09/28 00:59:29;;;;;;;0.47;0.47;;;;;;;;;;5050530;28;20199;-83
2022/09/28 01:01:56;;;;;;;1.07;1.07;;;;;;;;;;5050477;28;20206;-82
2022/09/28 01:04:22;;;;;;;0.70;0.70;;;;;;;;;;5050507;28;20670;-82
2022/09/28 01:06:50;;;;;;;0.57;0.57;;;;;;;;;;5050796;28;20994;-83
2022/09/28 01:09:17;;;;;;;0.60;0.60;;;;;;;;;;5050407;28;20643;-82
2022/09/28 01:11:44;;;;;;;0.90;0.90;;;;;;;;;;5050122;28;20681;-82
2022/09/28 01:14:13;;;;;;;0.67;0.67;;;;;;;;;;5050404;28;20693;-83
2022/09/28 01:16:44;;;;;;;0.60;0.60;;;;;;;;;;5037348;28;20243;-82
2022/09/28 01:19:23;;;;;;;0.70;0.70;;;;;;;;;;5050498;28;20196;-83
2022/09/28 01:21:52;;;;;;;0.57;0.57;;;;;;;;;;5037422;28;20595;-82
2022/09/28 01:24:39;;;;;;;0.80;0.80;;;;;;;;;;5049961;28;20216;-82
2022/09/28 01:27:11;;;;;;;1.67;0.90;;;;;;;;;;5050801;28;20226;-82
2022/09/28 01:29:45;;;;;;;0.90;0.90;;;;;;;;;;5049812;28;20210;-82
2022/09/28 01:32:17;;;;;;;0.50;0.50;;;;;;;;;;5050444;28;20276;-82
2022/09/28 01:34:48;;;;;;;0.50;0.50;;;;;;;;;;5049723;28;20213;-82
2022/09/28 01:37:16;;;;;;;0.60;0.60;;;;;;;;;;5050200;28;20207;-82
2022/09/28 01:39:47;;;;;;;0.80;0.80;;;;;;;;;;5050381;28;20254;-82
2022/09/28 01:42:18;;;;;;;0.80;0.80;;;;;;;;;;5050529;28;20207;-82
2022/09/28 01:44:47;;;;;;;0.53;0.53;;;;;;;;;;5049786;28;20624;-82
2022/09/28 01:47:15;;;;;;;0.80;0.80;;;;;;;;;;5049903;28;20685;-82
2022/09/28 01:49:46;;;;;;;0.70;0.70;;;;;;;;;;5049986;28;20617;-82
2022/09/28 01:52:15;;;;;;;0.80;0.80;;;;;;;;;;5050482;28;20207;-82
2022/09/28 01:54:45;;;;;;;0.80;0.80;;;;;;;;;;5050318;28;20209;-82
2022/09/28 01:57:17;;;;;;;0.87;0.77;;;;;;;;;;5049906;28;20216;-82
2022/09/28 01:59:48;;;;;;;1.53;1.20;;;;;;;;;;5049723;28;20223;-82
2022/09/28 02:02:17;;;;;;;1.10;1.10;;;;;;;;;;5050096;28;20203;-82
2022/09/28 02:04:48;;;;;;;1.10;1.00;;;;;;;;;;5036266;28;21000;-82
2022/09/28 02:07:19;;;;;;;0.83;0.70;;;;;;;;;;5049885;28;20207;-82
2022/09/28 02:09:49;;;;;;;1.17;1.07;;;;;;;;;;5050027;28;20234;-82
2022/09/28 02:12:22;;;;;;;0.50;0.50;;;;;;;;;;5049907;28;20593;-82
2022/09/28 02:14:50;;;;;;;0.60;0.60;;;;;;;;;;5050033;28;20259;-82
2022/09/28 02:17:16;;;;;;;0.70;0.70;;;;;;;;;;5049858;28;20204;-82
2022/09/28 02:19:44;;;;;;;0.83;0.83;;;;;;;;;;5050499;28;20204;-81
2022/09/28 02:22:22;;;;;;;0.60;0.60;;;;;;;;;;5050546;28;20202;-82
2022/09/28 02:24:54;;;;;;;0.73;0.73;;;;;;;;;;5049334;28;20292;-82
2022/09/28 02:27:30;;;;;;;0.90;0.90;;;;;;;;;;5049615;28;20212;-82
2022/09/28 02:29:56;;;;;;;1.20;1.10;;;;;;;;;;5049879;28;20210;-82
2022/09/28 02:32:24;;;;;;;0.97;0.97;;;;;;;;;;5050013;28;20234;-82
2022/09/28 02:34:51;;;;;;;0.50;0.50;;;;;;;;;;5049788;28;20206;-82
2022/09/28 02:37:17;;;;;;;0.67;0.67;;;;;;;;;;5049114;28;20227;-81
2022/09/28 02:39:44;;;;;;;0.60;0.60;;;;;;;;;;5050954;28;20833;-81
2022/09/28 02:42:16;;;;;;;0.80;0.80;;;;;;;;;;5051717;28;20207;-83
2022/09/28 02:44:54;;;;;;;1.80;1.70;;;;;;;;;;5052877;28;20204;-83
2022/09/28 02:47:27;;;;;;;1.67;1.57;;;;;;;;;;5053453;28;20212;-82
2022/09/28 02:50:00;;;;;;;0.67;0.63;;;;;;;;;;5052827;28;20250;-81
2022/09/28 02:52:46;;;;;;;0.63;0.63;;;;;;;;;;5053589;28;20202;-82
2022/09/28 02:55:31;;;;;;;0.67;0.67;;;;;;;;;;5052754;28;20205;-82
2022/09/28 02:58:16;;;;;;;0.50;0.50;;;;;;;;;;5053294;28;20205;-81
2022/09/28 03:00:48;;;;;;;0.40;0.40;;;;;;;;;;5052972;28;20268;-82
2022/09/28 03:03:18;;;;;;;0.47;0.47;;;;;;;;;;5053025;28;20206;-81
2022/09/28 03:05:51;;;;;;;0.97;0.70;;;;;;;;;;5053005;28;20231;-81
2022/09/28 03:08:23;;;;;;;0.70;0.70;;;;;;;;;;5052740;28;20609;-82
2022/09/28 03:10:54;;;;;;;0.50;0.50;;;;;;;;;;5052586;28;20201;-82
2022/09/28 03:13:22;;;;;;;0.70;0.70;;;;;;;;;;5052881;28;20638;-82
2022/09/28 03:15:50;;;;;;;0.50;0.50;;;;;;;;;;5052643;28;20222;-82
2022/09/28 03:18:17;;;;;;;1.13;1.10;;;;;;;;;;5052626;28;20208;-82
2022/09/28 03:20:44;;;;;;;0.83;0.83;;;;;;;;;;5052201;28;20202;-82
2022/09/28 03:23:10;;;;;;;0.97;0.97;;;;;;;;;;5052411;28;20216;-82
2022/09/28 03:25:37;;;;;;;0.67;0.67;;;;;;;;;;5052427;28;20213;-82
2022/09/28 03:28:04;;;;;;;0.77;0.77;;;;;;;;;;5052241;28;20689;-82
2022/09/28 03:30:31;;;;;;;0.80;0.80;;;;;;;;;;5052344;28;20272;-81
2022/09/28 03:33:01;;;;;;;0.67;0.67;;;;;;;;;;5052816;28;20229;-81
2022/09/28 03:35:28;;;;;;;0.77;0.73;;;;;;;;;;5051866;28;20202;-81
2022/09/28 03:37:55;;;;;;;1.00;1.00;;;;;;;;;;5052317;28;20593;-82
2022/09/28 03:40:22;;;;;;;0.93;0.93;;;;;;;;;;5052037;28;20675;-82
2022/09/28 03:42:49;;;;;;;0.83;0.83;;;;;;;;;;5051737;28;20625;-82
2022/09/28 03:45:16;;;;;;;0.60;0.60;;;;;;;;;;5051795;28;20745;-82
2022/09/28 03:47:45;;;;;;;0.53;0.53;;;;;;;;;;5038182;28;20206;-82
2022/09/28 03:50:14;;;;;;;0.70;0.70;;;;;;;;;;5051872;28;20206;-82
2022/09/28 03:52:41;;;;;;;0.90;0.90;;;;;;;;;;5049824;28;20193;-82
2022/09/28 03:55:08;;;;;;;4.03;2.23;;;;;;;;;;5051841;28;20194;-81
2022/09/28 03:57:35;;;;;;;1.03;1.03;;;;;;;;;;5052114;28;20229;-81
2022/09/28 04:00:02;;;;;;;0.73;0.73;;;;;;;;;;5052036;28;20206;-82
2022/09/28 04:02:29;;;;;;;0.70;0.70;;;;;;;;;;5037834;28;20202;-82
2022/09/28 04:04:56;;;;;;;0.87;0.87;;;;;;;;;;5051440;28;20221;-81
2022/09/28 04:07:24;;;;;;;0.60;0.60;;;;;;;;;;5051628;28;20676;-82
2022/09/28 04:09:51;;;;;;;0.70;0.70;;;;;;;;;;5051699;28;20198;-82
2022/09/28 04:12:17;;;;;;;0.77;0.77;;;;;;;;;;5051761;28;20625;-83
2022/09/28 04:14:44;;;;;;;0.83;0.83;;;;;;;;;;5051480;28;20209;-79
2022/09/28 04:17:11;;;;;;;0.43;0.43;;;;;;;;;;5045191;28;20225;-79
2022/09/28 04:19:38;;;;;;;0.73;0.73;;;;;;;;;;5051318;28;20202;-82
2022/09/28 04:22:04;;;;;;;0.40;0.40;;;;;;;;;;5051635;28;20289;-82
2022/09/28 04:24:33;;;;;;;0.80;0.80;;;;;;;;;;5051550;28;20216;-82
2022/09/28 04:29:41;;;;;;;1.53;1.40;;;;;;;;;;5050839;28;20204;-81
2022/09/28 04:32:08;;;;;;;1.00;0.97;;;;;;;;;;5051307;28;20249;-81
2022/09/28 04:34:35;;;;;;;0.83;0.83;;;;;;;;;;5051381;28;20202;-82
2022/09/28 04:37:02;;;;;;;1.40;1.40;;;;;;;;;;5050937;28;20236;-81
2022/09/28 04:39:28;;;;;;;1.07;1.07;;;;;;;;;;5051103;28;20205;-82
2022/09/28 04:42:00;;;;;;;0.77;0.77;;;;;;;;;;5050947;28;20202;-81
2022/09/28 04:44:26;;;;;;;0.73;0.73;;;;;;;;;;5050334;28;20576;-82
2022/09/28 04:46:55;;;;;;;0.73;0.73;;;;;;;;;;5051099;28;20717;-81
2022/09/28 04:49:23;;;;;;;1.00;1.00;;;;;;;;;;5050553;28;20718;-82
2022/09/28 04:51:49;;;;;;;0.40;0.40;;;;;;;;;;5051004;28;20255;-82
2022/09/28 04:54:16;;;;;;;0.60;0.60;;;;;;;;;;5051002;28;20210;-82
2022/09/28 04:56:43;;;;;;;0.57;0.57;;;;;;;;;;5051011;28;20233;-81
2022/09/28 04:59:12;;;;;;;1.00;1.00;;;;;;;;;;5050503;28;20210;-82
2022/09/28 05:01:38;;;;;;;0.70;0.70;;;;;;;;;;5050630;28;20209;-81
2022/09/28 05:04:05;;;;;;;0.70;0.70;;;;;;;;;;5050584;28;20206;-82
2022/09/28 05:06:32;;;;;;;0.80;0.80;;;;;;;;;;5050322;28;20769;-81
2022/09/28 05:08:59;;;;;;;0.80;0.80;;;;;;;;;;5050813;28;20715;-82
2022/09/28 05:11:25;;;;;;;1.10;1.03;;;;;;;;;;5043369;28;20213;-82
2022/09/28 05:13:52;;;;;;;0.83;0.83;;;;;;;;;;5050225;28;20719;-82
2022/09/28 05:16:20;;;;;;;1.00;1.00;;;;;;;;;;5050394;28;20234;-82
2022/09/28 05:18:47;;;;;;;0.80;0.80;;;;;;;;;;5050297;28;20209;-82
2022/09/28 05:21:18;;;;;;;0.70;0.70;;;;;;;;;;5050509;28;20209;-83
2022/09/28 05:23:46;;;;;;;1.70;1.60;;;;;;;;;;5050708;28;20202;-82
2022/09/28 05:26:16;;;;;;;1.00;1.00;;;;;;;;;;5049870;28;20229;-82
2022/09/28 05:28:43;;;;;;;1.00;1.00;;;;;;;;;;5050334;28;20205;-82
2022/09/28 05:31:10;;;;;;;1.17;0.77;;;;;;;;;;5050355;28;20194;-83
2022/09/28 05:33:38;;;;;;;1.20;1.10;;;;;;;;;;5050498;28;20198;-82
2022/09/28 05:36:08;;;;;;;1.33;1.20;;;;;;;;;;5049885;28;20202;-82
2022/09/28 05:38:34;;;;;;;0.60;0.60;;;;;;;;;;5049904;28;20202;-83
2022/09/28 05:41:01;;;;;;;1.43;1.33;;;;;;;;;;5050206;28;20202;-83
2022/09/28 05:43:28;;;;;;;1.00;1.00;;;;;;;;;;5050139;28;20201;-83
2022/09/28 05:45:55;;;;;;;0.77;0.77;;;;;;;;;;5049943;28;20198;-83
2022/09/28 05:48:21;;;;;;;0.80;0.80;;;;;;;;;;5050605;28;20213;-83
2022/09/28 05:50:52;;;;;;;0.67;0.67;;;;;;;;;;5050178;28;20198;-84
2022/09/28 05:53:18;;;;;;;0.77;0.77;;;;;;;;;;5049830;28;20218;-84
2022/09/28 05:55:45;;;;;;;1.63;0.90;;;;;;;;;;5049916;28;20570;-83
2022/09/28 05:58:12;;;;;;;0.60;0.60;;;;;;;;;;5050187;28;20575;-83
2022/09/28 06:00:39;;;;;;;0.50;0.50;;;;;;;;;;5049659;28;20563;-83
2022/09/28 06:03:07;;;;;;;0.50;0.50;;;;;;;;;;5050167;28;20202;-83
2022/09/28 06:05:35;;;;;;;0.50;0.50;;;;;;;;;;5049453;28;20218;-84
2022/09/28 06:08:04;;;;;;;0.73;0.73;;;;;;;;;;5050033;28;20595;-85
2022/09/28 06:10:31;;;;;;;0.47;0.47;;;;;;;;;;5050109;28;20203;-83
2022/09/28 06:12:58;;;;;;;0.70;0.70;;;;;;;;;;5050317;28;20649;-85
2022/09/28 06:15:27;;;;;;;0.80;0.77;;;;;;;;;;5051971;28;20214;-84
2022/09/28 06:17:57;;;;;;;0.63;0.63;;;;;;;;;;5053810;28;20228;-85
2022/09/28 06:20:24;;;;;;;0.87;0.87;;;;;;;;;;5053335;28;20291;-84
2022/09/28 06:22:52;;;;;;;0.90;0.90;;;;;;;;;;5053664;28;20211;-85
2022/09/28 06:25:21;;;;;;;0.80;0.80;;;;;;;;;;5054006;28;20236;-85
2022/09/28 06:27:55;;;;;;;1.17;1.17;;;;;;;;;;5053504;28;20238;-84
2022/09/28 06:30:23;;;;;;;1.23;1.13;;;;;;;;;;5040627;28;20258;-84
2022/09/28 06:32:52;;;;;;;0.93;0.90;;;;;;;;;;5053532;28;20233;-85
2022/09/28 06:35:20;;;;;;;1.10;1.10;;;;;;;;;;5053313;28;20601;-84
2022/09/28 06:37:47;;;;;;;1.13;1.03;;;;;;;;;;5053182;28;20657;-83
2022/09/28 06:40:14;;;;;;;0.60;0.60;;;;;;;;;;5053323;28;20264;-84
2022/09/28 06:42:42;;;;;;;0.60;0.60;;;;;;;;;;5053458;28;20206;-84
2022/09/28 06:45:12;;;;;;;0.87;0.87;;;;;;;;;;5052887;28;20206;-83
2022/09/28 06:47:40;;;;;;;0.77;0.77;;;;;;;;;;5046559;28;20243;-83
2022/09/28 06:50:11;;;;;;;0.60;0.60;;;;;;;;;;5053239;28;20825;-83
2022/09/28 06:52:38;;;;;;;0.87;0.73;;;;;;;;;;5053173;28;20202;-83
2022/09/28 06:55:05;;;;;;;0.70;0.70;;;;;;;;;;5053103;28;20206;-83
2022/09/28 06:57:32;;;;;;;0.80;0.80;;;;;;;;;;5053091;28;20597;-83
2022/09/28 07:00:00;;;;;;;0.93;0.93;;;;;;;;;;5052304;28;20220;-83
2022/09/28 07:02:27;;;;;;;1.00;0.83;;;;;;;;;;5053349;28;20209;-82
2022/09/28 07:04:54;;;;;;;0.90;0.90;;;;;;;;;;5052989;28;20284;-83
2022/09/28 07:07:21;;;;;;;0.70;0.70;;;;;;;;;;5052835;28;20206;-82
2022/09/28 07:09:48;;;;;;;0.90;0.90;;;;;;;;;;5052776;28;20198;-82
2022/09/28 07:12:15;;;;;;;0.90;0.90;;;;;;;;;;5052574;28;20647;-82
2022/09/28 07:14:44;;;;;;;0.77;0.77;;;;;;;;;;5052318;28;20194;-82
2022/09/28 07:17:12;;;;;;;1.03;1.03;;;;;;;;;;5053237;28;20266;-82
2022/09/28 07:19:39;;;;;;;0.83;0.83;;;;;;;;;;5052527;28;20225;-81
2022/09/28 07:22:05;;;;;;;0.67;0.67;;;;;;;;;;5052529;28;20636;-82
2022/09/28 07:24:32;;;;;;;0.80;0.80;;;;;;;;;;5052294;28;20236;-82
2022/09/28 07:26:59;;;;;;;1.13;1.10;;;;;;;;;;5051946;28;20206;-81
2022/09/28 07:29:25;;;;;;;1.17;1.17;;;;;;;;;;5051877;28;20209;-81
2022/09/28 07:31:53;;;;;;;0.80;0.80;;;;;;;;;;5052396;28;20230;-81
2022/09/28 07:34:23;;;;;;;1.00;0.87;;;;;;;;;;5052338;28;20202;-81
2022/09/28 07:36:50;;;;;;;1.20;1.10;;;;;;;;;;5052099;28;20210;-81
2022/09/28 07:39:17;;;;;;;0.80;0.80;;;;;;;;;;5052098;28;20201;-81
2022/09/28 07:41:43;;;;;;;0.83;0.83;;;;;;;;;;5052241;28;20197;-81
2022/09/28 07:44:10;;;;;;;0.63;0.63;;;;;;;;;;5051811;28;20607;-80
2022/09/28 07:46:37;;;;;;;0.57;0.57;;;;;;;;;;5052480;28;20212;-80
2022/09/28 07:49:04;;;;;;;0.93;0.93;;;;;;;;;;5051682;28;20663;-80
2022/09/28 07:51:33;;;;;;;0.80;0.80;;;;;;;;;;5052430;28;20244;-80
2022/09/28 07:53:59;;;;;;;0.80;0.80;;;;;;;;;;5051549;28;20206;-80
2022/09/28 07:56:26;;;;;;;1.27;1.20;;;;;;;;;;5052134;28;20204;-80
2022/09/28 07:58:53;;;;;;;0.93;0.93;;;;;;;;;;5051546;28;20229;-80
2022/09/28 08:01:20;;;;;;;0.93;0.93;;;;;;;;;;5037857;28;20723;-80
2022/09/28 08:03:47;;;;;;;1.47;1.10;;;;;;;;;;5051726;28;20745;-79
2022/09/28 08:06:15;;;;;;;1.60;1.50;;;;;;;;;;5051545;28;20202;-80
2022/09/28 08:08:44;;;;;;;1.30;0.97;;;;;;;;;;5051594;28;20293;-80
2022/09/28 08:11:11;;;;;;;1.00;0.90;;;;;;;;;;5051808;28;20288;-80
2022/09/28 08:13:38;;;;;;;1.23;1.23;;;;;;;;;;5051617;28;20206;-80
2022/09/28 08:16:06;;;;;;;1.63;1.53;;;;;;;;;;5051346;28;20271;-80
2022/09/28 08:18:33;;;;;;;1.20;1.20;;;;;;;;;;5051758;28;20261;-80
2022/09/28 08:23:46;;;;;;;2.07;1.87;;;;;;;;;;5051474;28;20701;-79
2022/09/28 08:26:12;;;;;;;2.23;2.13;;;;;;;;;;5051732;28;20209;-79
2022/09/28 08:28:41;;;;;;;2.00;1.50;;;;;;;;;;5051475;28;20284;-79
2022/09/28 08:31:08;;;;;;;1.50;1.40;;;;;;;;;;5051559;28;20633;-79
2022/09/28 08:33:35;;;;;;;2.30;1.43;;;;;;;;;;5051181;28;20252;-79
2022/09/28 08:36:04;;;;;;;1.80;1.67;;;;;;;;;;5051087;28;20633;-78
2022/09/28 08:38:31;;;;;;;2.00;1.90;;;;;;;;;;5050662;28;20233;-78
2022/09/28 08:41:04;;;;;;;2.37;2.20;;;;;;;;;;5051091;28;20631;-78
2022/09/28 08:43:55;;;;;;;2.57;2.37;;;;;;;;;;5051348;28;20636;-78
2022/09/28 08:46:25;;;;;;;1.63;1.53;;;;;;;;;;5050959;28;20217;-78
2022/09/28 08:48:54;;;;;;;1.60;1.40;;;;;;;;;;5050586;28;20202;-78
2022/09/28 08:51:23;;;;;;;1.23;1.13;;;;;;;;;;5051258;28;20209;-79
2022/09/28 08:53:55;;;;;;;1.40;1.30;;;;;;;;;;5050888;28;20216;-78
2022/09/28 08:56:29;;;;;;;1.40;1.30;;;;;;;;;;5050780;28;20194;-78
2022/09/28 08:58:59;;;;;;;1.43;1.33;;;;;;;;;;5050748;28;20621;-78
2022/09/28 09:01:28;;;;;;;1.63;1.40;;;;;;;;;;5050942;28;20213;-79
2022/09/28 09:03:56;;;;;;;0.90;0.90;;;;;;;;;;5050901;28;20212;-78
2022/09/28 09:06:28;;;;;;;1.20;0.97;;;;;;;;;;5050791;28;20211;-78
2022/09/28 09:09:00;;;;;;;1.00;1.00;;;;;;;;;;5050436;28;20202;-78
2022/09/28 09:11:45;;;;;;;1.17;1.00;;;;;;;;;;5050314;28;20232;-78
2022/09/28 09:14:39;;;;;;;1.40;1.30;;;;;;;;;;5050572;28;20201;-78
2022/09/28 09:17:13;;;;;;;1.30;1.20;;;;;;;;;;5032754;28;20221;-78
2022/09/28 09:19:46;;;;;;;1.87;1.77;;;;;;;;;;5049998;28;20591;-78
2022/09/28 09:22:16;;;;;;;0.90;0.90;;;;;;;;;;5051051;28;20628;-78
2022/09/28 09:24:49;;;;;;;1.30;1.20;;;;;;;;;;5050387;28;20200;-78
2022/09/28 09:27:31;;;;;;;1.40;1.30;;;;;;;;;;5050907;28;20285;-78
2022/09/28 09:30:05;;;;;;;1.37;1.20;;;;;;;;;;5050066;28;20591;-79
2022/09/28 09:32:43;;;;;;;0.93;0.93;;;;;;;;;;5037767;28;20230;-78
2022/09/28 09:35:29;;;;;;;0.90;0.90;;;;;;;;;;5050361;28;20914;-78
2022/09/28 09:38:09;;;;;;;1.10;1.10;;;;;;;;;;5050086;28;20312;-78
2022/09/28 09:40:50;;;;;;;1.10;1.10;;;;;;;;;;5049929;28;20205;-78
2022/09/28 09:43:40;;;;;;;1.17;1.07;;;;;;;;;;5050672;28;20205;-79
2022/09/28 09:46:14;;;;;;;1.03;1.03;;;;;;;;;;5037050;28;20269;-78
2022/09/28 09:48:49;;;;;;;1.10;1.10;;;;;;;;;;5051527;28;20237;-79
2022/09/28 09:51:23;;;;;;;0.97;0.97;;;;;;;;;;5054501;28;20261;-79
2022/09/28 09:53:58;;;;;;;3.97;2.67;;;;;;;;;;5054096;28;20204;-79
2022/09/28 09:56:33;;;;;;;1.40;1.30;;;;;;;;;;5054451;28;20206;-79
2022/09/28 09:59:06;;;;;;;1.00;1.00;;;;;;;;;;5053901;28;20225;-78
2022/09/28 10:01:36;;;;;;;0.90;0.90;;;;;;;;;;5054673;28;20212;-79
2022/09/28 10:04:05;;;;;;;1.00;1.00;;;;;;;;;;5054094;28;20201;-78
2022/09/28 10:06:33;;;;;;;0.93;0.80;;;;;;;;;;5054118;28;20741;-79
2022/09/28 10:09:03;;;;;;;0.80;0.80;;;;;;;;;;5054078;28;20213;-82
2022/09/28 10:11:34;;;;;;;0.80;0.80;;;;;;;;;;5053740;28;20202;-81
2022/09/28 10:14:03;;;;;;;0.70;0.70;;;;;;;;;;5054046;28;20263;-79
2022/09/28 10:16:31;;;;;;;0.60;0.60;;;;;;;;;;5053554;28;20205;-79
2022/09/28 10:18:58;;;;;;;0.57;0.57;;;;;;;;;;5053567;28;20312;-80
2022/09/28 10:21:26;;;;;;;0.53;0.53;;;;;;;;;;5053779;28;20202;-80
2022/09/28 10:23:56;;;;;;;0.70;0.70;;;;;;;;;;5053771;28;20217;-80
2022/09/28 10:26:25;;;;;;;0.80;0.80;;;;;;;;;;5053122;28;20202;-79
2022/09/28 10:28:55;;;;;;;0.60;0.60;;;;;;;;;;5053505;28;20571;-80
2022/09/28 10:31:41;;;;;;;0.60;0.60;;;;;;;;;;5053544;28;20631;-81
2022/09/28 10:34:12;;;;;;;0.53;0.53;;;;;;;;;;5039732;28;20202;-80
2022/09/28 10:36:54;;;;;;;0.80;0.80;;;;;;;;;;5053303;28;20205;-79
2022/09/28 10:39:28;;;;;;;0.80;0.80;;;;;;;;;;5053613;28;20261;-80
2022/09/28 10:41:57;;;;;;;3.37;2.37;;;;;;;;;;5053304;28;20644;-81
2022/09/28 10:44:24;;;;;;;0.67;0.67;;;;;;;;;;5053036;28;20198;-80
2022/09/28 10:46:59;;;;;;;0.40;0.40;;;;;;;;;;5053125;28;20729;-80
2022/09/28 10:49:28;;;;;;;0.63;0.63;;;;;;;;;;5039222;28;20568;-81
2022/09/28 10:51:56;;;;;;;0.80;0.80;;;;;;;;;;5053292;28;20678;-80
2022/09/28 10:54:24;;;;;;;1.60;1.50;;;;;;;;;;5053134;28;20229;-80
2022/09/28 10:56:55;;;;;;;1.97;0.90;;;;;;;;;;5052909;28;20205;-79
2022/09/28 10:59:40;;;;;;;0.57;0.57;;;;;;;;;;5052784;28;20696;-79
2022/09/28 11:02:20;;;;;;;0.73;0.73;;;;;;;;;;5053143;28;20205;-80
2022/09/28 11:04:51;;;;;;;1.15;0.93;;;;;;;;;;5039652;28;20228;-81
2022/09/28 11:07:20;;;;;;;0.60;0.60;;;;;;;;;;5052845;28;20700;-79
2022/09/28 11:09:48;;;;;;;0.70;0.70;;;;;;;;;;5052606;28;20259;-80
2022/09/28 11:12:16;;;;;;;0.40;0.40;;;;;;;;;;5053029;28;20216;-80
2022/09/28 11:14:45;;;;;;;0.70;0.70;;;;;;;;;;5052617;28;20206;-81
2022/09/28 11:17:16;;;;;;;0.57;0.57;;;;;;;;;;5052587;28;20288;-80
2022/09/28 11:19:43;;;;;;;0.80;0.80;;;;;;;;;;5052867;28;20229;-80
2022/09/28 11:22:29;;;;;;;0.70;0.70;;;;;;;;;;5052698;28;20680;-79
2022/09/28 11:25:12;;;;;;;1.37;0.93;;;;;;;;;;5052573;28;20202;-79
2022/09/28 11:27:39;;;;;;;3.83;1.80;;;;;;;;;;5052458;28;20205;-81
2022/09/28 11:30:23;;;;;;;0.73;0.73;;;;;;;;;;5052470;28;20201;-80
2022/09/28 11:32:53;;;;;;;0.60;0.60;;;;;;;;;;5052881;28;20651;-79
2022/09/28 11:35:21;;;;;;;0.60;0.60;;;;;;;;;;5051982;28;20233;-79
2022/09/28 11:38:13;;;;;;;0.60;0.60;;;;;;;;;;5052393;28;20210;-80
2022/09/28 11:40:47;;;;;;;0.70;0.70;;;;;;;;;;5052067;28;20190;-79
2022/09/28 11:43:18;;;;;;;0.90;0.90;;;;;;;;;;5052301;28;20634;-80
2022/09/28 11:45:51;;;;;;;0.90;0.90;;;;;;;;;;5051702;28;20290;-79
2022/09/28 11:48:24;;;;;;;0.60;0.60;;;;;;;;;;5052431;28;20210;-79
2022/09/28 11:50:53;;;;;;;0.60;0.60;;;;;;;;;;5052022;28;20213;-78
2022/09/28 11:53:25;;;;;;;2.93;1.63;;;;;;;;;;5052228;28;20213;-79
2022/09/28 11:55:57;;;;;;;1.05;0.95;;;;;;;;;;5051827;28;20263;-79
2022/09/28 11:58:29;;;;;;;1.07;1.00;;;;;;;;;;5051796;28;20291;-78
2022/09/28 12:01:00;;;;;;;0.63;0.63;;;;;;;;;;5051792;28;20202;-80
2022/09/28 12:03:34;;;;;;;0.70;0.70;;;;;;;;;;5052086;28;20693;-82
2022/09/28 12:06:05;;;;;;;0.50;0.50;;;;;;;;;;5051351;28;20202;-78
2022/09/28 12:08:35;;;;;;;0.80;0.80;;;;;;;;;;5051649;28;20241;-79
2022/09/28 12:11:08;;;;;;;1.10;0.77;;;;;;;;;;5051522;28;20205;-80
2022/09/28 12:13:38;;;;;;;0.60;0.60;;;;;;;;;;5051283;28;20205;-80
2022/09/28 12:16:07;;;;;;;0.90;0.67;;;;;;;;;;5051898;28;20213;-81
2022/09/28 12:18:41;;;;;;;0.30;0.30;;;;;;;;;;5051701;28;20275;-79
2022/09/28 12:21:15;;;;;;;0.40;0.40;;;;;;;;;;5051604;28;20594;-80
2022/09/28 12:23:43;;;;;;;0.70;0.70;;;;;;;;;;5051719;28;20284;-80
2022/09/28 12:26:21;;;;;;;0.63;0.60;;;;;;;;;;5051127;28;20205;-80
2022/09/28 12:28:49;;;;;;;0.97;0.70;;;;;;;;;;5051340;28;20216;-81
2022/09/28 12:31:20;;;;;;;0.50;0.50;;;;;;;;;;5050989;28;20615;-80
2022/09/28 12:33:51;;;;;;;0.40;0.40;;;;;;;;;;5051070;28;20206;-80
2022/09/28 12:36:40;;;;;;;1.17;1.17;;;;;;;;;;5051176;28;20680;-79
2022/09/28 12:39:30;;;;;;;2.07;1.30;;;;;;;;;;5050817;28;20225;-80
2022/09/28 12:42:07;;;;;;;1.30;1.10;;;;;;;;;;5050981;28;20260;-80
2022/09/28 12:44:55;;;;;;;1.30;0.77;;;;;;;;;;5050743;28;20212;-82
2022/09/28 12:47:36;;;;;;;4.70;2.70;;;;;;;;;;5023322;28;20200;-79
2022/09/28 12:50:17;;;;;;;4.90;3.13;;;;;;;;;;5050571;28;20198;-80
2022/09/28 12:52:52;;;;;;;1.20;1.10;;;;;;;;;;5050970;28;20197;-80
2022/09/28 12:55:38;;;;;;;0.67;0.67;;;;;;;;;;5050399;28;20205;-79
2022/09/28 12:58:14;;;;;;;0.70;0.70;;;;;;;;;;5050715;28;20200;-80
2022/09/28 13:00:47;;;;;;;0.60;0.60;;;;;;;;;;5050273;28;20722;-80
2022/09/28 13:03:35;;;;;;;0.80;0.80;;;;;;;;;;5050877;28;20202;-78
2022/09/28 13:06:15;;;;;;;0.47;0.47;;;;;;;;;;5050487;28;20649;-77
2022/09/28 13:08:49;;;;;;;1.07;0.97;;;;;;;;;;5051000;28;20210;-80
2022/09/28 13:11:25;;;;;;;0.47;0.47;;;;;;;;;;5050385;28;20202;-80
2022/09/28 13:14:01;;;;;;;1.40;0.40;;;;;;;;;;5050836;28;20210;-79
2022/09/28 13:16:33;;;;;;;0.70;0.70;;;;;;;;;;5050681;28;20225;-80
2022/09/28 13:19:07;;;;;;;0.67;0.67;;;;;;;;;;5050404;28;20317;-78
2022/09/28 13:21:39;;;;;;;0.83;0.77;;;;;;;;;;5050362;28;20935;-79
2022/09/28 13:24:11;;;;;;;1.40;0.80;;;;;;;;;;5050148;28;20205;-80
2022/09/28 13:26:40;;;;;;;0.90;0.90;;;;;;;;;;5050476;28;20202;-80
2022/09/28 13:29:13;;;;;;;0.80;0.80;;;;;;;;;;5050534;28;20660;-80
2022/09/28 13:31:44;;;;;;;0.80;0.80;;;;;;;;;;5049939;28;20230;-82
2022/09/28 13:34:19;;;;;;;0.47;0.40;;;;;;;;;;5050267;28;20209;-78
2022/09/28 13:37:08;;;;;;;0.53;0.53;;;;;;;;;;5050247;28;20275;-78
2022/09/28 13:39:38;;;;;;;0.50;0.50;;;;;;;;;;5050107;28;20707;-77
2022/09/28 13:42:06;;;;;;;1.55;0.55;;;;;;;;;;5049705;28;20216;-77
2022/09/28 13:44:53;;;;;;;0.60;0.60;;;;;;;;;;5050055;28;20229;-78
2022/09/28 13:47:31;;;;;;;0.82;0.82;;;;;;;;;;5050154;28;20241;-82
2022/09/28 13:50:05;;;;;;;0.45;0.45;;;;;;;;;;5050204;28;20209;-80
2022/09/28 13:52:44;;;;;;;0.67;0.67;;;;;;;;;;5049539;28;20205;-80
2022/09/28 13:55:32;;;;;;;0.60;0.60;;;;;;;;;;5050245;28;20305;-80
2022/09/28 13:58:03;;;;;;;0.60;0.60;;;;;;;;;;5037108;28;20233;-79
2022/09/28 14:00:33;;;;;;;0.55;0.55;;;;;;;;;;5049817;28;20623;-79
2022/09/28 14:03:12;;;;;;;0.50;0.50;;;;;;;;;;5048549;28;20212;-79
2022/09/28 14:05:53;;;;;;;0.60;0.60;;;;;;;;;;5050377;28;20216;-79
2022/09/28 14:08:34;;;;;;;0.73;0.73;;;;;;;;;;5050283;28;20221;-79
2022/09/28 14:11:40;;;;;;;0.47;0.47;;;;;;;;;;5049759;28;20210;-79
2022/09/28 14:14:29;;;;;;;0.55;0.55;;;;;;;;;;5049855;28;20248;-79
2022/09/28 14:17:48;;;;;;;0.55;0.55;;;;;;;;;;5038456;28;20209;-79
2022/09/28 14:20:16;;;;;;;0.57;0.57;;;;;;;;;;5037730;28;20229;-79
2022/09/28 14:22:52;;;;;;;2.10;1.95;;;;;;;;;;5049572;28;20232;-79
2022/09/28 14:25:24;;;;;;;2.38;2.17;;;;;;;;;;5049614;28;20675;-79
2022/09/28 14:28:12;;;;;;;2.42;2.22;;;;;;;;;;5049780;28;20228;-79
2022/09/28 14:30:48;;;;;;;3.28;2.97;;;;;;;;;;5049489;28;20198;-79
2022/09/28 14:33:24;;;;;;;4.50;4.07;;;;;;;;;;5049520;28;20230;-79
2022/09/28 14:35:55;;;;;;;7.65;5.28;;;;;;;;;;5051029;28;20202;-79
2022/09/28 14:41:10;;;;;;;2.53;2.33;;;;;;;;;;5041116;28;20225;-79
2022/09/28 14:43:38;;;;;;;0.93;0.93;;;;;;;;;;5053283;28;20212;-79
2022/09/28 14:46:36;;;;;;;6.63;3.20;;;;;;;;;;5053425;28;20206;-79
2022/09/28 14:49:04;;;;;;;1.35;1.25;;;;;;;;;;5051788;28;20216;-78
2022/09/28 14:52:06;;;;;;;2.27;0.70;;;;;;;;;;5053076;28;20198;-79
2022/09/28 14:54:42;;;;;;;0.60;0.60;;;;;;;;;;5039386;28;20205;-79
2022/09/28 14:57:17;;;;;;;0.70;0.70;;;;;;;;;;5052975;28;20209;-79
2022/09/28 14:59:46;;;;;;;0.60;0.60;;;;;;;;;;5039828;28;20236;-79
2022/09/28 15:02:25;;;;;;;0.60;0.60;;;;;;;;;;5053331;28;20616;-79
2022/09/28 15:04:54;;;;;;;1.77;1.23;;;;;;;;;;5052933;28;20198;-78
2022/09/28 15:07:23;;;;;;;3.28;2.42;;;;;;;;;;5052797;28;20202;-79
2022/09/28 15:09:51;;;;;;;2.63;2.10;;;;;;;;;;5038880;28;20198;-78
2022/09/28 15:12:22;;;;;;;3.33;1.97;;;;;;;;;;5053008;28;20696;-79
2022/09/28 15:14:52;;;;;;;2.53;2.33;;;;;;;;;;5052617;28;20688;-78
2022/09/28 15:17:21;;;;;;;2.13;1.93;;;;;;;;;;5052786;28;20237;-78